Huntersville, Pennsylvania
Current Conditions -  °F | °C
As of 3:54 PM on Thursday 20 Nov 2014 (Local Time) from KIPT Reporting Station
Few Clouds Few Clouds  
Wind Chill: 23°   Ceiling: Unl
Heat Index: 33°   Visibility: 10mi
Dew Point:   Wind: 16mph
Humidity: 37%   Direction: 260°W
Pressure: 29.92"   Gusts: 23mph
Location:  41.225°N, 76.7388°W
Report Text: KIPT 202054Z 26014G20KT 10SM FEW055 01/M13 A2992 RMK AO2 SLP137 T00061128 53007
Loading
Personal Weather Stations






























Interactive Weather Map New forecast layout! Learn more

10-Day Weather Forecast

Advertisements
Track Severe Weather on mobile